Time;durP1;ratioP1;P1;durP2;ratioP2;P2;SDS_P1;SDS_P2;PMS_P1;PMS_P2;Temp;Humidity;BMP_temperature;BMP_pressure;BME280_temperature;BME280_humidity;BME280_pressure;Samples;Min_cycle;Max_cycle;Signal;HPM_P1;HPM_P2
2022/11/29 00:00:46;;;;;;;3.45;3.15;;;;;;;4.59;100.00;98558.69;5011695;28;20179;-56
2022/11/29 00:03:12;;;;;;;3.03;2.83;;;;;;;4.57;100.00;98557.06;5011749;28;20202;-56
2022/11/29 00:05:37;;;;;;;2.95;2.75;;;;;;;4.52;100.00;98562.41;5015614;28;20190;-56
2022/11/29 00:08:02;;;;;;;3.30;3.10;;;;;;;4.54;100.00;98559.78;5015289;28;20183;-56
2022/11/29 00:10:28;;;;;;;3.33;3.00;;;;;;;4.65;100.00;98563.53;5015706;28;20237;-55
2022/11/29 00:12:53;;;;;;;3.97;3.40;;;;;;;4.57;100.00;98564.75;5015358;28;20249;-55
2022/11/29 00:15:18;;;;;;;4.78;4.07;;;;;;;4.66;100.00;98565.22;5015324;28;20181;-55
2022/11/29 00:17:44;;;;;;;4.22;3.83;;;;;;;4.77;100.00;98564.75;5015095;28;20178;-56
2022/11/29 00:20:10;;;;;;;7.82;4.30;;;;;;;4.85;100.00;98562.69;5015217;28;20736;-56
2022/11/29 00:22:36;;;;;;;4.82;4.43;;;;;;;4.92;100.00;98562.38;5015130;28;20701;-55
2022/11/29 00:25:03;;;;;;;6.85;4.80;;;;;;;4.86;100.00;98552.38;5015035;28;20175;-56
2022/11/29 00:27:28;;;;;;;5.05;4.60;;;;;;;5.02;100.00;98561.03;5014864;28;20206;-56
2022/11/29 00:29:54;;;;;;;4.93;4.43;;;;;;;4.92;100.00;98557.25;5015041;28;20728;-56
2022/11/29 00:32:19;;;;;;;5.00;4.50;;;;;;;4.75;100.00;98557.13;5015016;28;20178;-56
2022/11/29 00:34:45;;;;;;;4.35;3.95;;;;;;;5.00;100.00;98567.13;5014778;28;20182;-56
2022/11/29 00:37:10;;;;;;;5.47;4.72;;;;;;;5.03;100.00;98565.31;5014772;28;20171;-56
2022/11/29 00:39:36;;;;;;;5.75;4.25;;;;;;;5.10;100.00;98564.13;5014781;28;20177;-55
2022/11/29 00:42:01;;;;;;;8.45;4.55;;;;;;;5.21;100.00;98561.06;5014789;28;20225;-56
2022/11/29 00:44:26;;;;;;;4.22;3.88;;;;;;;5.31;100.00;98570.03;5014596;28;20648;-56
2022/11/29 00:46:52;;;;;;;4.43;3.90;;;;;;;5.30;100.00;98560.69;5014668;28;20174;-56
2022/11/29 00:49:17;;;;;;;4.13;3.80;;;;;;;5.27;100.00;98568.50;5014666;28;20731;-56
2022/11/29 00:51:43;;;;;;;5.03;4.00;;;;;;;5.24;100.00;98554.06;5014858;28;20171;-56
2022/11/29 00:54:08;;;;;;;3.78;3.25;;;;;;;5.44;100.00;98555.75;5014552;28;20671;-56
2022/11/29 00:56:33;;;;;;;3.80;3.50;;;;;;;5.36;100.00;98543.25;5014454;28;20171;-56
2022/11/29 00:58:59;;;;;;;4.13;3.75;;;;;;;5.22;100.00;98548.19;5014446;28;20656;-56
2022/11/29 01:01:24;;;;;;;4.40;3.97;;;;;;;5.04;100.00;98541.31;5014552;28;20183;-56
2022/11/29 01:03:50;;;;;;;3.83;3.47;;;;;;;5.07;100.00;98535.22;5014234;28;20672;-56
2022/11/29 01:06:17;;;;;;;4.38;4.05;;;;;;;5.21;100.00;98536.28;5014210;28;20697;-56
2022/11/29 01:08:44;;;;;;;4.15;3.72;;;;;;;5.41;100.00;98535.34;5014288;28;20182;-56
2022/11/29 01:11:16;;;;;;;3.55;3.25;;;;;;;5.48;100.00;98523.91;5014505;28;20190;-56
2022/11/29 01:13:43;;;;;;;3.30;3.00;;;;;;;5.57;100.00;98511.47;5014299;28;20242;-55
2022/11/29 01:16:08;;;;;;;3.42;3.13;;;;;;;5.64;100.00;98510.28;5013627;28;20171;-54
2022/11/29 01:18:35;;;;;;;3.20;2.90;;;;;;;5.48;100.00;98526.47;5014064;28;20171;-54
2022/11/29 01:21:06;;;;;;;3.63;3.08;;;;;;;5.40;100.00;98518.28;5014064;28;20568;-55
2022/11/29 01:23:33;;;;;;;3.35;3.05;;;;;;;5.29;100.00;98516.22;5013745;28;20198;-54
2022/11/29 01:26:06;;;;;;;3.00;2.80;;;;;;;5.32;100.00;98528.09;5013813;28;20652;-55
2022/11/29 01:28:33;;;;;;;2.90;2.70;;;;;;;5.34;100.00;98529.69;5013815;28;20210;-55
2022/11/29 01:31:03;;;;;;;2.60;2.40;;;;;;;5.30;100.00;98535.84;5013880;28;20207;-54
2022/11/29 01:33:28;;;;;;;2.95;2.75;;;;;;;5.27;100.00;98530.88;5014003;28;20167;-54
2022/11/29 01:35:54;;;;;;;2.95;2.75;;;;;;;5.27;100.00;98538.56;5014075;28;20186;-55
2022/11/29 01:38:21;;;;;;;3.20;3.00;;;;;;;4.96;100.00;98522.03;5013621;28;20262;-54
2022/11/29 01:41:26;;;;;;;3.08;2.88;;;;;;;5.05;100.00;98532.72;5013615;28;20244;-55
2022/11/29 01:44:04;;;;;;;3.58;3.28;;;;;;;4.98;100.00;98523.66;4992071;28;20199;-55
2022/11/29 01:46:35;;;;;;;3.08;2.85;;;;;;;5.11;100.00;98524.75;5011669;28;20266;-55
2022/11/29 01:49:07;;;;;;;4.35;3.95;;;;;;;5.24;100.00;98518.16;5013843;28;20175;-54
2022/11/29 01:51:36;;;;;;;3.80;3.50;;;;;;;5.25;100.00;98519.81;5014094;28;20641;-55
2022/11/29 01:54:02;;;;;;;3.45;3.15;;;;;;;5.16;100.00;98520.25;5013619;28;20555;-55
2022/11/29 01:56:29;;;;;;;3.92;3.53;;;;;;;5.37;100.00;98513.31;5013233;28;20175;-54
2022/11/29 01:58:54;;;;;;;3.50;3.20;;;;;;;5.31;100.00;98509.28;5013316;28;20203;-55
2022/11/29 02:01:20;;;;;;;3.67;3.38;;;;;;;5.35;100.00;98512.53;5013868;28;20274;-55
2022/11/29 02:03:45;;;;;;;2.88;2.67;;;;;;;5.12;100.00;98512.78;5013360;28;20229;-55
2022/11/29 02:06:12;;;;;;;3.20;2.88;;;;;;;4.98;100.00;98510.81;5013080;28;20175;-55
2022/11/29 02:08:41;;;;;;;3.53;3.22;;;;;;;5.00;100.00;98510.72;5013065;28;20674;-55
2022/11/29 02:11:25;;;;;;;5.28;3.05;;;;;;;5.22;100.00;98507.16;5013122;28;20190;-55
2022/11/29 02:14:23;;;;;;;2.83;2.55;;;;;;;5.23;100.00;98513.09;5013263;28;20159;-54
2022/11/29 02:16:54;;;;;;;3.67;2.42;;;;;;;5.02;100.00;98514.91;5012895;28;20171;-54
2022/11/29 02:19:25;;;;;;;2.67;2.47;;;;;;;5.01;100.00;98509.84;5012962;28;20182;-55
2022/11/29 02:22:04;;;;;;;3.08;2.70;;;;;;;5.07;100.00;98515.53;5013065;28;20565;-55
2022/11/29 02:24:54;;;;;;;2.78;2.58;;;;;;;5.12;100.00;98518.72;5013025;28;20214;-54
2022/11/29 02:27:38;;;;;;;2.83;2.63;;;;;;;5.05;100.00;98512.22;5011828;28;20185;-55
2022/11/29 02:30:09;;;;;;;3.33;2.53;;;;;;;4.98;100.00;98521.09;5012997;28;20238;-54
2022/11/29 02:33:08;;;;;;;2.30;2.20;;;;;;;4.86;100.00;98515.66;5012792;28;20548;-55
2022/11/29 02:36:29;;;;;;;2.60;2.40;;;;;;;4.85;100.00;98516.56;5012861;28;20206;-55
2022/11/29 02:39:09;;;;;;;2.75;2.40;;;;;;;4.99;100.00;98522.75;4960885;28;20191;-55
2022/11/29 02:42:12;;;;;;;2.30;2.20;;;;;;;5.17;100.00;98516.78;5013180;28;20186;-55
2022/11/29 02:44:46;;;;;;;2.20;2.00;;;;;;;5.31;100.00;98516.16;5012542;28;20194;-55
2022/11/29 02:47:39;;;;;;;2.15;2.05;;;;;;;5.13;100.00;98522.94;5012386;28;20259;-55
2022/11/29 02:50:10;;;;;;;2.55;2.25;;;;;;;5.02;100.00;98525.16;5012619;28;20222;-55
2022/11/29 02:52:48;;;;;;;2.20;2.10;;;;;;;5.15;100.00;98515.19;5012735;28;20182;-55
2022/11/29 02:55:37;;;;;;;2.08;1.98;;;;;;;5.10;100.00;98519.69;5012381;28;20169;-55
2022/11/29 02:58:21;;;;;;;1.95;1.85;;;;;;;5.08;100.00;98506.94;5012630;28;20309;-55
2022/11/29 03:01:03;;;;;;;1.77;1.67;;;;;;;5.25;100.00;98521.56;5012418;28;20641;-55
2022/11/29 03:03:48;;;;;;;1.80;1.70;;;;;;;5.07;100.00;98518.09;5012447;28;20195;-55
2022/11/29 03:06:28;;;;;;;2.40;2.20;;;;;;;5.18;100.00;98528.69;5012381;28;20159;-55
2022/11/29 03:09:11;;;;;;;2.22;2.13;;;;;;;5.17;100.00;98524.47;5012605;28;20159;-55
2022/11/29 03:11:42;;;;;;;2.00;1.90;;;;;;;5.23;100.00;98525.91;5012522;28;20326;-55
2022/11/29 03:14:24;;;;;;;1.92;1.83;;;;;;;5.32;100.00;98526.34;5012124;28;20268;-55
2022/11/29 03:17:04;;;;;;;2.08;1.98;;;;;;;5.27;100.00;98528.28;5012305;28;20262;-55
2022/11/29 03:19:54;;;;;;;1.98;1.88;;;;;;;5.29;100.00;98521.34;5012227;28;20221;-55
2022/11/29 03:22:30;;;;;;;1.90;1.80;;;;;;;5.31;100.00;98516.16;5011862;28;20187;-55
2022/11/29 03:25:04;;;;;;;2.10;2.00;;;;;;;5.30;100.00;98517.06;5012008;28;20185;-55
2022/11/29 03:27:40;;;;;;;3.72;1.98;;;;;;;5.20;100.00;98516.63;5012412;28;20254;-55
2022/11/29 03:30:08;;;;;;;2.35;2.15;;;;;;;5.19;100.00;98516.72;5012354;28;20675;-55
2022/11/29 03:33:11;;;;;;;2.30;2.15;;;;;;;5.13;100.00;98515.25;5011969;28;20171;-55
2022/11/29 03:35:46;;;;;;;2.13;2.03;;;;;;;4.90;100.00;98515.44;5007018;28;20187;-55
2022/11/29 03:38:30;;;;;;;2.53;2.33;;;;;;;4.80;100.00;98511.66;5013711;28;20624;-55
2022/11/29 03:41:13;;;;;;;2.75;2.00;;;;;;;4.94;100.00;98511.84;5015936;28;20163;-55
2022/11/29 03:43:58;;;;;;;2.35;2.17;;;;;;;5.10;100.00;98517.97;5015844;28;20201;-55
2022/11/29 03:46:42;;;;;;;1.80;1.70;;;;;;;5.20;100.00;98510.69;5015947;28;20246;-55
2022/11/29 03:49:19;;;;;;;1.85;1.75;;;;;;;5.12;100.00;98513.59;5015795;28;20167;-55
2022/11/29 03:51:58;;;;;;;1.35;1.30;;;;;;;5.10;100.00;98502.59;5015933;28;20174;-55
2022/11/29 03:54:34;;;;;;;1.60;1.50;;;;;;;5.30;100.00;98522.19;5015944;28;20159;-55
2022/11/29 03:56:59;;;;;;;1.70;1.60;;;;;;;5.27;100.00;98523.16;5015693;28;20166;-54
2022/11/29 03:59:40;;;;;;;1.30;1.30;;;;;;;5.19;100.00;98530.34;5015422;28;20187;-55
2022/11/29 04:02:52;;;;;;;1.50;1.40;;;;;;;5.13;100.00;98532.38;5015495;28;20182;-55
2022/11/29 04:05:21;;;;;;;1.40;1.30;;;;;;;5.15;100.00;98528.84;5003334;28;20198;-55
2022/11/29 04:07:59;;;;;;;1.40;1.40;;;;;;;5.10;100.00;98535.91;5014257;28;20729;-55
2022/11/29 04:11:11;;;;;;;1.50;1.45;;;;;;;5.29;100.00;98538.47;5015626;28;20218;-55
2022/11/29 04:13:55;;;;;;;1.73;1.63;;;;;;;5.54;100.00;98532.13;5015318;28;20175;-55
2022/11/29 04:16:51;;;;;;;1.58;1.48;;;;;;;5.59;100.00;98537.09;5015367;28;20209;-55
2022/11/29 04:19:49;;;;;;;1.10;1.10;;;;;;;5.36;100.00;98540.69;5010522;28;20233;-55
2022/11/29 04:22:24;;;;;;;1.30;1.30;;;;;;;5.50;100.00;98528.06;5015457;28;20301;-55
2022/11/29 04:25:23;;;;;;;1.35;1.35;;;;;;;5.29;100.00;98516.22;5015195;28;20257;-55
2022/11/29 04:28:06;;;;;;;1.33;1.25;;;;;;;5.18;100.00;98531.25;5015267;28;20258;-55
2022/11/29 04:30:47;;;;;;;1.60;1.50;;;;;;;5.02;100.00;98527.72;5015152;28;20258;-55
2022/11/29 04:33:18;;;;;;;2.15;1.50;;;;;;;5.04;100.00;98527.66;5014828;28;20174;-55
2022/11/29 04:36:02;;;;;;;1.73;1.63;;;;;;;5.10;100.00;98528.22;5014781;28;20171;-55
2022/11/29 04:38:34;;;;;;;2.53;2.00;;;;;;;5.02;100.00;98532.84;5014732;28;20221;-55
2022/11/29 04:41:35;;;;;;;1.95;1.85;;;;;;;4.97;100.00;98519.44;5015424;28;20163;-55
2022/11/29 04:44:07;;;;;;;4.20;2.67;;;;;;;5.00;100.00;98528.69;5015056;28;20270;-55
2022/11/29 04:46:45;;;;;;;1.70;1.60;;;;;;;4.89;100.00;98530.91;5014801;28;20175;-55
2022/11/29 04:49:32;;;;;;;1.80;1.70;;;;;;;4.84;100.00;98528.53;5014536;28;20625;-55
2022/11/29 04:52:23;;;;;;;2.05;1.80;;;;;;;4.85;100.00;98530.19;5014488;28;20167;-55
2022/11/29 04:55:03;;;;;;;1.42;1.33;;;;;;;5.09;100.00;98534.25;5014817;28;20164;-55
2022/11/29 04:57:44;;;;;;;1.95;1.83;;;;;;;5.33;100.00;98535.72;5014499;28;20194;-55
2022/11/29 05:00:14;;;;;;;1.83;1.67;;;;;;;5.29;100.00;98531.63;5014428;28;20672;-55
2022/11/29 05:02:54;;;;;;;2.33;2.13;;;;;;;5.36;100.00;98537.31;5014165;28;20710;-55
2022/11/29 05:05:36;;;;;;;2.78;2.58;;;;;;;5.55;100.00;98544.06;5014660;28;20159;-55
2022/11/29 05:08:10;;;;;;;2.60;2.40;;;;;;;5.53;100.00;98547.63;5014480;28;20633;-55
2022/11/29 05:11:06;;;;;;;5.65;2.75;;;;;;;5.61;100.00;98548.94;5014331;28;20179;-55
2022/11/29 05:13:50;;;;;;;3.15;2.85;;;;;;;5.65;100.00;98555.56;5014393;28;20624;-55
2022/11/29 05:16:35;;;;;;;3.03;1.80;;;;;;;5.63;100.00;98557.38;5014299;28;20642;-55
2022/11/29 05:19:26;;;;;;;1.77;1.33;;;;;;;5.42;100.00;98558.38;5014784;28;20633;-55
2022/11/29 05:22:28;;;;;;;4.63;1.40;;;;;;;5.37;100.00;98550.03;5014078;28;20167;-55
2022/11/29 05:25:31;;;;;;;1.20;1.13;;;;;;;5.53;100.00;98563.84;5014338;28;20245;-55
2022/11/29 05:28:06;;;;;;;2.35;1.55;;;;;;;5.57;100.00;98549.97;5013792;28;20218;-55
2022/11/29 05:30:59;;;;;;;1.20;1.20;;;;;;;5.45;100.00;98568.50;5014516;28;20237;-55
2022/11/29 05:34:06;;;;;;;1.10;1.10;;;;;;;5.45;100.00;98567.66;5013747;28;20533;-55
2022/11/29 05:36:39;;;;;;;3.33;1.40;;;;;;;5.45;100.00;98578.78;4975758;28;20180;-55
2022/11/29 05:39:48;;;;;;;1.45;1.38;;;;;;;5.48;100.00;98576.03;4991998;28;20739;-55
2022/11/29 05:42:19;;;;;;;1.58;1.20;;;;;;;5.50;100.00;98579.41;4998622;28;20274;-55
2022/11/29 05:44:49;;;;;;;1.15;1.15;;;;;;;5.60;100.00;98578.06;5013668;28;20296;-55
2022/11/29 05:47:28;;;;;;;1.10;1.10;;;;;;;5.58;100.00;98579.88;5013605;28;20168;-55
2022/11/29 05:50:08;;;;;;;1.48;1.38;;;;;;;5.70;100.00;98583.59;5014140;28;20258;-56
2022/11/29 05:52:55;;;;;;;1.08;1.08;;;;;;;5.71;100.00;98586.09;5014076;28;20171;-56
2022/11/29 05:55:20;;;;;;;1.60;1.50;;;;;;;5.84;100.00;98582.06;5013684;28;20555;-55
2022/11/29 05:57:55;;;;;;;1.30;1.30;;;;;;;5.83;100.00;98584.72;5013606;28;20664;-56
2022/11/29 06:00:21;;;;;;;2.20;2.10;;;;;;;5.90;100.00;98586.91;5013376;28;20178;-56
2022/11/29 06:03:11;;;;;;;2.60;2.40;;;;;;;5.91;100.00;98587.75;5012218;28;20636;-55
2022/11/29 06:05:55;;;;;;;2.40;2.30;;;;;;;5.68;100.00;98577.69;5013287;28;20659;-56
2022/11/29 06:08:47;;;;;;;2.10;2.00;;;;;;;5.54;100.00;98582.66;5013118;28;20577;-56
2022/11/29 06:11:23;;;;;;;1.85;1.75;;;;;;;5.33;100.00;98584.44;5010419;28;20428;-55
2022/11/29 06:14:04;;;;;;;1.90;1.73;;;;;;;5.44;100.00;98579.69;5013169;28;20182;-56
2022/11/29 06:17:00;;;;;;;2.50;2.30;;;;;;;5.61;100.00;98584.03;5013277;28;20171;-56
2022/11/29 06:19:52;;;;;;;2.50;2.35;;;;;;;5.68;100.00;98577.69;5013001;28;20159;-55
2022/11/29 06:22:19;;;;;;;3.10;2.83;;;;;;;5.75;100.00;98581.66;5013148;28;20167;-56
2022/11/29 06:24:55;;;;;;;2.58;2.38;;;;;;;5.80;100.00;98582.28;5012889;28;20187;-55
2022/11/29 06:27:48;;;;;;;1.88;1.77;;;;;;;5.91;100.00;98583.47;5012819;28;20163;-56
2022/11/29 06:30:19;;;;;;;1.90;1.80;;;;;;;5.94;100.00;98583.31;5012885;28;20172;-56
2022/11/29 06:32:56;;;;;;;2.63;2.30;;;;;;;5.90;100.00;98578.41;5013087;28;20158;-55
2022/11/29 06:35:44;;;;;;;2.42;2.22;;;;;;;5.85;100.00;98581.19;5012500;28;20166;-55
2022/11/29 06:38:19;;;;;;;5.00;3.42;;;;;;;5.90;100.00;98580.97;5012438;28;20210;-56
2022/11/29 06:40:45;;;;;;;3.63;3.30;;;;;;;6.00;100.00;98572.75;5013239;28;20167;-56
2022/11/29 06:43:11;;;;;;;4.15;3.20;;;;;;;6.04;100.00;98571.72;5012560;28;20221;-56
2022/11/29 06:45:43;;;;;;;2.30;2.10;;;;;;;6.13;100.00;98567.88;5012539;28;20258;-55
2022/11/29 06:48:13;;;;;;;1.63;1.52;;;;;;;6.09;100.00;98577.47;5012508;28;20230;-55
2022/11/29 06:51:06;;;;;;;2.00;1.90;;;;;;;5.95;100.00;98581.59;5012173;28;20190;-56
2022/11/29 06:53:46;;;;;;;2.00;1.90;;;;;;;6.08;100.00;98573.22;5012447;28;20223;-56
2022/11/29 06:56:25;;;;;;;1.90;1.80;;;;;;;6.03;100.00;98569.22;5012283;28;20710;-56
2022/11/29 06:58:56;;;;;;;3.47;2.30;;;;;;;6.00;100.00;98574.50;5012470;28;20171;-56
2022/11/29 07:01:44;;;;;;;2.15;2.05;;;;;;;5.86;100.00;98559.75;5012384;28;20262;-56
2022/11/29 07:04:28;;;;;;;3.28;2.97;;;;;;;5.99;100.00;98578.78;5012395;28;20218;-56
2022/11/29 07:06:53;;;;;;;2.78;2.50;;;;;;;5.99;100.00;98575.38;5012218;28;20203;-56
2022/11/29 07:09:21;;;;;;;2.20;2.05;;;;;;;5.98;100.00;98584.84;5012191;28;20234;-56
2022/11/29 07:11:47;;;;;;;2.67;2.47;;;;;;;6.05;100.00;98575.09;5012781;28;20183;-55
2022/11/29 07:14:13;;;;;;;2.25;2.15;;;;;;;6.12;100.00;98582.44;5012077;28;20182;-55
2022/11/29 07:17:06;;;;;;;2.83;2.63;;;;;;;6.18;100.00;98583.91;5012608;28;20624;-56
2022/11/29 07:19:44;;;;;;;3.50;3.15;;;;;;;6.17;100.00;98584.81;5012498;28;20177;-55
2022/11/29 07:22:25;;;;;;;39.67;22.05;;;;;;;6.25;100.00;98582.69;5012261;28;20260;-54
2022/11/29 07:25:19;;;;;;;32.70;19.15;;;;;;;6.27;100.00;98581.72;5012448;28;20267;-55
2022/11/29 07:27:51;;;;;;;27.77;16.27;;;;;;;6.25;100.00;98582.69;5011845;28;20202;-55
2022/11/29 07:30:20;;;;;;;20.25;13.48;;;;;;;6.35;100.00;98583.91;5012217;28;20190;-55
2022/11/29 07:33:06;;;;;;;14.35;10.18;;;;;;;6.46;100.00;98587.59;5011871;28;20175;-55
2022/11/29 07:35:55;;;;;;;10.25;7.50;;;;;;;6.50;100.00;98589.13;5011880;28;20279;-55
2022/11/29 07:38:42;;;;;;;11.48;7.55;;;;;;;6.52;100.00;98584.72;5012195;28;20221;-55
2022/11/29 07:41:37;;;;;;;14.77;8.10;;;;;;;6.67;100.00;98586.56;5010730;28;20658;-55
2022/11/29 07:44:11;;;;;;;7.38;6.13;;;;;;;6.63;100.00;98586.75;5012038;28;20461;-55
2022/11/29 07:46:37;;;;;;;10.70;7.03;;;;;;;6.61;100.00;98591.16;5011949;28;20637;-55
2022/11/29 07:49:02;;;;;;;7.80;5.78;;;;;;;6.60;100.00;98589.50;5011285;28;20179;-55
2022/11/29 07:51:27;;;;;;;7.47;5.90;;;;;;;6.48;100.00;98585.78;5011446;28;20175;-55
2022/11/29 07:53:53;;;;;;;12.52;7.65;;;;;;;6.52;100.00;98587.31;5011735;28;20174;-55
2022/11/29 07:56:18;;;;;;;11.73;8.05;;;;;;;6.57;100.00;98587.91;5011551;28;20262;-55
2022/11/29 07:58:44;;;;;;;12.55;8.43;;;;;;;6.63;100.00;98590.16;5011073;28;20179;-55
2022/11/29 15:28:00;;;;;;;35.45;23.63;;;;;;;7.64;100.00;98495.53;5006817;28;20309;-55
2022/11/29 15:30:40;;;;;;;33.83;22.70;;;;;;;7.59;100.00;98497.56;5012098;28;20270;-56
2022/11/29 15:33:17;;;;;;;30.45;22.63;;;;;;;7.56;100.00;98502.88;5012354;28;20174;-56
2022/11/29 15:35:48;;;;;;;52.33;33.53;;;;;;;7.50;100.00;98508.34;5016185;28;20178;-56
2022/11/29 15:38:18;;;;;;;69.85;40.33;;;;;;;7.56;100.00;98500.28;5016361;28;20599;-55
2022/11/29 15:40:54;;;;;;;64.72;38.67;;;;;;;7.57;100.00;98499.38;5016301;28;20175;-55
2022/11/29 15:43:21;;;;;;;61.85;37.88;;;;;;;7.48;100.00;98504.19;5016227;28;20187;-56
2022/11/29 15:45:53;;;;;;;55.03;34.38;;;;;;;7.36;100.00;98503.13;5015785;28;20743;-56
2022/11/29 15:48:19;;;;;;;48.03;28.83;;;;;;;7.30;100.00;98500.91;5015634;28;20179;-55
2022/11/29 15:51:02;;;;;;;40.47;28.50;;;;;;;7.46;100.00;98493.97;5015771;28;20183;-56
2022/11/29 15:53:43;;;;;;;32.03;22.90;;;;;;;7.34;100.00;98502.38;5015668;28;20708;-56
2022/11/29 15:56:53;;;;;;;33.53;23.23;;;;;;;7.35;100.00;98501.44;5016050;28;20229;-56
2022/11/29 15:59:36;;;;;;;31.98;22.40;;;;;;;7.45;100.00;98505.19;5004544;28;20555;-56
2022/11/29 16:02:12;;;;;;;31.83;21.23;;;;;;;7.55;100.00;98497.78;5015965;28;20171;-56
2022/11/29 16:04:40;;;;;;;34.22;22.88;;;;;;;7.38;100.00;98505.59;5015611;28;20270;-55
2022/11/29 16:07:07;;;;;;;42.40;26.95;;;;;;;7.26;100.00;98499.38;5015601;28;20175;-55
2022/11/29 16:09:40;;;;;;;38.13;26.52;;;;;;;7.16;100.00;98497.41;5015782;28;20183;-57
2022/11/29 16:12:12;;;;;;;51.28;33.63;;;;;;;7.22;100.00;98513.31;5016040;28;20224;-56
2022/11/29 16:14:52;;;;;;;60.78;35.95;;;;;;;7.30;100.00;98508.63;5015666;28;20175;-56
2022/11/29 16:17:25;;;;;;;73.93;41.75;;;;;;;7.35;100.00;98514.31;5028645;28;20205;-56
2022/11/29 16:20:23;;;;;;;61.05;35.63;;;;;;;7.44;100.00;98518.97;5035422;28;20179;-56
2022/11/29 16:23:02;;;;;;;55.65;35.22;;;;;;;7.60;100.00;98512.09;5034567;28;20664;-56
2022/11/29 16:25:30;;;;;;;59.63;38.13;;;;;;;7.71;100.00;98514.91;5034949;28;20186;-56
2022/11/29 16:27:55;;;;;;;50.40;32.53;;;;;;;7.73;100.00;98525.94;5034642;28;20348;-56
2022/11/29 16:30:24;;;;;;;84.70;55.17;;;;;;;7.82;100.00;98520.25;5034935;28;20283;-56
2022/11/29 16:32:56;;;;;;;72.13;48.05;;;;;;;7.73;100.00;98519.94;5035101;28;20189;-56
2022/11/29 16:35:26;;;;;;;57.47;38.20;;;;;;;7.83;100.00;98515.97;5035349;28;20297;-56
2022/11/29 16:37:52;;;;;;;59.85;38.03;;;;;;;7.83;100.00;98521.97;5034995;28;20174;-56
2022/11/29 16:40:27;;;;;;;39.75;29.20;;;;;;;7.89;100.00;98510.47;5034963;28;20185;-56
2022/11/29 16:43:06;;;;;;;39.28;26.33;;;;;;;7.91;100.00;98517.19;5034790;28;20178;-56
2022/11/29 16:45:33;;;;;;;47.47;30.70;;;;;;;7.91;100.00;98519.75;5033900;28;20174;-56
2022/11/29 16:48:00;;;;;;;54.28;32.35;;;;;;;7.90;100.00;98520.69;5034506;28;20185;-56
2022/11/29 16:50:30;;;;;;;48.65;32.40;;;;;;;7.84;100.00;98523.59;5034357;28;20181;-56
2022/11/29 16:53:33;;;;;;;44.67;29.98;;;;;;;7.73;100.00;98530.25;5034731;28;20170;-56
2022/11/29 16:55:59;;;;;;;39.38;25.08;;;;;;;7.80;100.00;98529.03;5034344;28;20186;-56
2022/11/29 16:58:24;;;;;;;42.47;26.88;;;;;;;7.70;100.00;98523.53;5034360;28;20186;-56
2022/11/29 17:00:50;;;;;;;42.85;27.38;;;;;;;7.68;100.00;98530.50;5034508;28;20287;-55
2022/11/29 17:03:17;;;;;;;45.22;30.40;;;;;;;7.56;100.00;98527.78;5034186;28;20248;-55
2022/11/29 17:05:43;;;;;;;50.38;28.92;;;;;;;7.60;100.00;98514.66;5034171;28;20586;-55
2022/11/29 17:08:09;;;;;;;61.72;35.20;;;;;;;7.57;100.00;98539.75;5034333;28;20179;-56
2022/11/29 17:10:34;;;;;;;53.92;32.85;;;;;;;7.52;100.00;98537.41;5034388;28;20666;-56
2022/11/29 17:13:00;;;;;;;62.17;35.58;;;;;;;7.50;100.00;98531.53;5033640;28;20603;-56
2022/11/29 17:15:25;;;;;;;54.03;33.55;;;;;;;7.51;100.00;98535.75;5034074;28;20381;-56
2022/11/29 17:17:51;;;;;;;51.15;32.63;;;;;;;7.42;100.00;98531.13;5034574;28;20271;-55
2022/11/29 17:20:16;;;;;;;43.67;27.50;;;;;;;7.46;100.00;98537.75;5033991;28;20236;-56
2022/11/29 17:22:42;;;;;;;37.88;25.48;;;;;;;7.48;100.00;98533.38;5034416;28;20237;-56
2022/11/29 17:25:08;;;;;;;35.08;23.02;;;;;;;7.40;100.00;98537.25;5033842;28;20182;-56
2022/11/29 17:27:35;;;;;;;31.00;19.88;;;;;;;7.36;100.00;98530.59;5033685;28;20182;-56
2022/11/29 17:30:00;;;;;;;36.15;22.42;;;;;;;7.34;100.00;98528.09;5034395;28;20170;-55
2022/11/29 17:32:26;;;;;;;38.55;22.40;;;;;;;7.43;100.00;98537.91;5033933;28;20193;-56
2022/11/29 17:34:51;;;;;;;35.63;25.27;;;;;;;7.45;100.00;98540.41;5033687;28;20178;-56
2022/11/29 17:37:17;;;;;;;35.17;26.05;;;;;;;7.24;100.00;98542.41;5033902;28;20723;-56
2022/11/29 17:39:45;;;;;;;32.03;21.58;;;;;;;7.09;100.00;98544.94;5033649;28;20182;-55
2022/11/29 17:42:11;;;;;;;37.83;23.40;;;;;;;7.05;100.00;98546.00;5033577;28;20171;-56
2022/11/29 17:44:36;;;;;;;37.85;22.02;;;;;;;7.07;100.00;98550.16;5033458;28;20213;-56
2022/11/29 17:47:02;;;;;;;74.38;48.53;;;;;;;7.16;100.00;98554.00;5033471;28;20174;-56
2022/11/29 17:49:27;;;;;;;47.22;29.13;;;;;;;7.22;100.00;98544.19;5033366;28;20178;-56
2022/11/29 17:51:52;;;;;;;42.95;25.58;;;;;;;7.05;100.00;98551.16;5033331;28;20256;-57
2022/11/29 17:54:18;;;;;;;42.75;24.98;;;;;;;7.01;100.00;98544.50;5033372;28;20753;-57
2022/11/29 17:56:43;;;;;;;39.20;24.00;;;;;;;7.13;100.00;98555.00;5033051;28;20178;-57
2022/11/29 17:59:09;;;;;;;45.03;25.90;;;;;;;7.04;100.00;98559.78;5033366;28;20247;-57
2022/11/29 18:01:35;;;;;;;52.05;28.15;;;;;;;7.01;100.00;98553.06;5033153;28;20185;-57
2022/11/29 18:04:02;;;;;;;52.40;31.35;;;;;;;7.10;100.00;98556.91;5033296;28;20202;-56
2022/11/29 18:06:39;;;;;;;47.90;29.50;;;;;;;7.12;100.00;98555.06;5033119;28;20665;-56
2022/11/29 18:09:06;;;;;;;54.65;32.97;;;;;;;7.21;100.00;98562.28;5033177;28;20201;-61
2022/11/29 18:11:41;;;;;;;63.22;36.25;;;;;;;7.08;100.00;98558.69;5033050;28;20179;-57
2022/11/29 18:14:10;;;;;;;57.25;32.00;;;;;;;7.11;100.00;98549.09;5033123;28;20166;-57
2022/11/29 18:16:35;;;;;;;59.95;35.05;;;;;;;7.27;100.00;98554.25;5033054;28;20182;-56
2022/11/29 18:19:04;;;;;;;53.53;32.10;;;;;;;7.30;100.00;98552.38;5032814;28;20185;-56
2022/11/29 18:21:31;;;;;;;48.00;29.02;;;;;;;7.22;100.00;98551.91;5032811;28;20182;-56
2022/11/29 18:24:00;;;;;;;44.58;29.55;;;;;;;7.29;100.00;98555.81;5032668;28;20316;-56
2022/11/29 18:26:27;;;;;;;52.75;31.23;;;;;;;7.25;100.00;98544.06;5033247;28;20190;-57
2022/11/29 18:28:53;;;;;;;49.83;30.98;;;;;;;7.38;100.00;98559.66;5032557;28;20268;-57
2022/11/29 18:31:24;;;;;;;45.50;29.25;;;;;;;7.48;100.00;98565.97;5032632;28;20624;-57
2022/11/29 18:33:52;;;;;;;50.38;31.45;;;;;;;7.51;100.00;98556.34;5032146;28;20170;-56
2022/11/29 18:36:23;;;;;;;60.42;33.08;;;;;;;7.46;100.00;98557.53;5032917;28;20269;-56
2022/11/29 18:38:55;;;;;;;59.03;33.55;;;;;;;7.43;100.00;98553.38;5032780;28;20170;-56
2022/11/29 18:41:22;;;;;;;53.95;31.98;;;;;;;7.56;100.00;98562.09;5032415;28;20159;-56
2022/11/29 18:43:53;;;;;;;54.88;32.90;;;;;;;7.51;100.00;98566.66;5032549;28;20201;-57
2022/11/29 18:46:19;;;;;;;53.08;32.35;;;;;;;7.52;100.00;98562.34;5032417;28;20163;-57
2022/11/29 18:48:45;;;;;;;49.75;32.22;;;;;;;7.50;100.00;98559.84;5032308;28;20689;-57
2022/11/29 18:51:16;;;;;;;50.15;28.88;;;;;;;7.58;100.00;98567.97;5032473;28;20723;-55
2022/11/29 18:53:43;;;;;;;49.03;28.20;;;;;;;7.54;100.00;98561.34;5032239;28;20233;-55
2022/11/29 18:56:16;;;;;;;56.42;30.58;;;;;;;7.49;100.00;98567.63;5031743;28;20178;-55
2022/11/29 18:58:43;;;;;;;43.50;28.00;;;;;;;7.43;100.00;98558.50;5032129;28;20163;-56
2022/11/29 19:01:18;;;;;;;49.20;30.00;;;;;;;7.56;100.00;98564.66;5030728;28;20186;-56
2022/11/29 19:03:49;;;;;;;42.50;27.30;;;;;;;7.67;100.00;98566.63;5031717;28;20182;-55
2022/11/29 19:06:17;;;;;;;35.35;23.75;;;;;;;7.49;100.00;98527.28;5014484;28;20206;-55
2022/11/29 19:08:46;;;;;;;41.15;24.58;;;;;;;7.76;100.00;98574.69;5031565;28;20179;-56
2022/11/29 19:11:17;;;;;;;42.55;25.98;;;;;;;7.70;100.00;98572.44;5032027;28;20181;-55
2022/11/29 19:13:43;;;;;;;40.13;26.05;;;;;;;7.67;100.00;98572.63;5031969;28;20181;-56
2022/11/29 19:16:13;;;;;;;41.53;26.70;;;;;;;7.73;100.00;98577.44;5032201;28;20175;-56
2022/11/29 19:18:39;;;;;;;41.00;26.35;;;;;;;7.63;100.00;98570.31;5031904;28;20635;-55
2022/11/29 19:21:13;;;;;;;40.67;26.35;;;;;;;7.64;100.00;98567.63;5032131;28;20193;-56
2022/11/29 19:23:40;;;;;;;38.60;25.25;;;;;;;7.56;100.00;98569.81;5032079;28;20190;-56
2022/11/29 19:26:08;;;;;;;40.15;25.73;;;;;;;7.58;100.00;98567.16;5032092;28;20244;-56
2022/11/29 19:28:41;;;;;;;36.72;24.80;;;;;;;7.63;100.00;98565.16;5031735;28;20728;-56